Time;durP1;ratioP1;P1;durP2;ratioP2;P2;SDS_P1;SDS_P2;PMS_P1;PMS_P2;Temp;Humidity;BMP_temperature;BMP_pressure;BME280_temperature;BME280_humidity;BME280_pressure;Samples;Min_cycle;Max_cycle;Signal;HPM_P1;HPM_P2
2021/11/22 00:00:23;;;;;;;9.93;7.82;;;;;;;-140.79;100.00;63287.88;5046083;28;20669;-68
2021/11/22 00:02:50;;;;;;;11.15;7.78;;;;;;;-140.79;100.00;63287.88;5046282;28;20543;-69
2021/11/22 00:05:15;;;;;;;10.50;8.13;;;;;;;-140.79;100.00;63287.88;5046037;28;20086;-69
2021/11/22 00:07:41;;;;;;;10.85;8.30;;;;;;;-140.79;100.00;63287.88;5045875;28;20009;-69
2021/11/22 00:10:06;;;;;;;11.32;8.15;;;;;;;-140.79;100.00;63287.88;5045961;28;20029;-67
2021/11/22 00:12:33;;;;;;;10.10;7.45;;;;;;;-140.79;100.00;63287.88;5046023;28;20021;-68
2021/11/22 00:15:00;;;;;;;11.02;8.10;;;;;;;-140.79;100.00;63287.88;5044859;28;20056;-69
2021/11/22 00:17:25;;;;;;;10.90;8.27;;;;;;;-140.79;100.00;63287.88;5044695;28;20086;-70
2021/11/22 00:19:51;;;;;;;9.82;8.13;;;;;;;-140.79;100.00;63287.88;5046060;28;20462;-69
2021/11/22 00:22:16;;;;;;;10.05;7.72;;;;;;;-140.79;100.00;63287.88;5045738;28;20558;-69
2021/11/22 00:24:42;;;;;;;10.40;7.55;;;;;;;-140.79;100.00;63287.88;5045906;28;20024;-70
2021/11/22 00:27:08;;;;;;;11.20;8.15;;;;;;;-140.79;100.00;63287.88;5045530;28;20031;-69
2021/11/22 00:29:33;;;;;;;9.65;7.20;;;;;;;-140.79;100.00;63287.88;5045934;28;20040;-68
2021/11/22 00:32:02;;;;;;;11.00;7.90;;;;;;;-140.79;100.00;63287.88;5045742;28;20041;-68
2021/11/22 00:34:27;;;;;;;10.45;8.15;;;;;;;-140.79;100.00;63287.88;5045847;28;20032;-70
2021/11/22 00:36:53;;;;;;;11.23;7.90;;;;;;;-140.79;100.00;63287.88;5045274;28;20036;-69
2021/11/22 00:39:18;;;;;;;9.82;8.00;;;;;;;-140.79;100.00;63287.88;5045712;28;20656;-68
2021/11/22 00:41:44;;;;;;;10.60;7.65;;;;;;;-140.79;100.00;63287.88;5043945;28;20469;-68
2021/11/22 00:44:09;;;;;;;10.93;7.80;;;;;;;-140.79;100.00;63287.88;5045466;28;20036;-69
2021/11/22 00:46:35;;;;;;;11.65;8.60;;;;;;;-140.79;100.00;63287.88;5045289;28;20039;-69
2021/11/22 00:49:00;;;;;;;11.68;8.50;;;;;;;-140.79;100.00;63287.88;5043675;28;20074;-69
2021/11/22 00:51:26;;;;;;;10.45;8.20;;;;;;;-140.79;100.00;63287.88;5045097;28;20507;-70
2021/11/22 00:53:53;;;;;;;9.43;7.68;;;;;;;-140.79;100.00;63287.88;5045270;28;20595;-69
2021/11/22 00:56:19;;;;;;;12.23;8.48;;;;;;;-140.79;100.00;63287.88;5044956;28;20044;-68
2021/11/22 00:58:44;;;;;;;12.45;8.18;;;;;;;-140.79;100.00;63287.88;5043876;28;20021;-69
2021/11/22 01:03:45;;;;;;;10.63;8.45;;;;;;;-140.79;100.00;63287.88;4874003;28;20547;-65
2021/11/22 01:06:11;;;;;;;11.82;7.88;;;;;;;-140.79;100.00;63287.88;4966394;28;20035;-65
2021/11/22 01:08:36;;;;;;;12.40;8.68;;;;;;;-140.79;100.00;63287.88;4965241;28;20026;-65
2021/11/22 01:11:01;;;;;;;9.75;7.85;;;;;;;-140.79;100.00;63287.88;4965840;28;20035;-65
2021/11/22 01:13:27;;;;;;;11.50;8.15;;;;;;;-140.79;100.00;63287.88;4966132;28;20027;-65
2021/11/22 01:15:53;;;;;;;10.88;8.35;;;;;;;-140.79;100.00;63287.88;4965833;28;20035;-67
2021/11/22 01:18:18;;;;;;;10.65;8.02;;;;;;;-140.79;100.00;63287.88;4966038;28;20030;-65
2021/11/22 01:20:44;;;;;;;10.00;7.88;;;;;;;-140.79;100.00;63287.88;4966105;28;20026;-66
2021/11/22 01:23:11;;;;;;;10.30;8.15;;;;;;;-140.79;100.00;63287.88;4946999;28;20034;-66
2021/11/22 01:25:38;;;;;;;10.55;8.48;;;;;;;-140.79;100.00;63287.88;4964943;28;20046;-65
2021/11/22 01:28:03;;;;;;;11.70;9.02;;;;;;;-140.79;100.00;63287.88;4964584;28;20041;-66
2021/11/22 01:30:29;;;;;;;12.23;8.55;;;;;;;-140.79;100.00;63287.88;4965917;28;20026;-65
2021/11/22 01:32:54;;;;;;;11.65;8.30;;;;;;;-140.79;100.00;63287.88;4965814;28;20022;-66
2021/11/22 01:35:20;;;;;;;10.20;8.30;;;;;;;-140.79;100.00;63287.88;4965044;28;20457;-66
2021/11/22 01:37:46;;;;;;;11.25;8.73;;;;;;;-140.79;100.00;63287.88;4965943;28;20504;-66
2021/11/22 01:40:13;;;;;;;11.18;8.20;;;;;;;-140.79;100.00;63287.88;4966033;28;20027;-66
2021/11/22 01:42:40;;;;;;;10.98;8.23;;;;;;;-140.79;100.00;63287.88;4948473;28;20034;-66
2021/11/22 01:45:07;;;;;;;10.30;8.68;;;;;;;-140.79;100.00;63287.88;4965682;28;20058;-65
2021/11/22 01:47:32;;;;;;;10.95;7.95;;;;;;;-140.79;100.00;63287.88;4965940;28;20023;-66
2021/11/22 01:49:58;;;;;;;10.23;7.93;;;;;;;-140.79;100.00;63287.88;4965559;28;20041;-66
2021/11/22 01:52:23;;;;;;;11.00;8.57;;;;;;;-140.79;100.00;63287.88;4965347;28;20030;-66
2021/11/22 01:54:49;;;;;;;12.20;9.15;;;;;;;-140.79;100.00;63287.88;4965755;28;20081;-66
2021/11/22 01:57:17;;;;;;;11.25;8.30;;;;;;;-140.79;100.00;63287.88;4964409;28;20030;-66
2021/11/22 01:59:42;;;;;;;11.45;8.20;;;;;;;-140.79;100.00;63287.88;4964290;28;20062;-66
2021/11/22 02:02:09;;;;;;;11.43;8.40;;;;;;;-140.79;100.00;63287.88;4964904;28;20417;-66
2021/11/22 02:04:34;;;;;;;10.98;8.00;;;;;;;-140.79;100.00;63287.88;4966621;28;20029;-65
2021/11/22 02:07:00;;;;;;;11.13;8.18;;;;;;;-140.79;100.00;63287.88;4966616;28;20027;-65
2021/11/22 02:09:25;;;;;;;11.48;8.65;;;;;;;-140.79;100.00;63287.88;4967357;28;20031;-65
2021/11/22 02:11:51;;;;;;;12.18;8.68;;;;;;;-140.79;100.00;63287.88;4965847;28;20023;-65
2021/11/22 02:14:16;;;;;;;10.43;7.93;;;;;;;-140.79;100.00;63287.88;4948903;28;20030;-66
2021/11/22 02:16:42;;;;;;;11.82;8.75;;;;;;;-140.79;100.00;63287.88;4969325;28;20030;-66
2021/11/22 02:19:07;;;;;;;10.48;8.07;;;;;;;-140.79;100.00;63287.88;4968840;28;20492;-65
2021/11/22 02:21:32;;;;;;;11.40;8.38;;;;;;;-140.79;100.00;63287.88;4969053;28;20039;-66
2021/11/22 02:23:58;;;;;;;11.15;8.23;;;;;;;-140.79;100.00;63287.88;4967490;28;20030;-66
2021/11/22 02:26:24;;;;;;;10.70;8.05;;;;;;;-140.79;100.00;63287.88;4969079;28;20061;-66
2021/11/22 02:28:49;;;;;;;12.07;8.80;;;;;;;-140.79;100.00;63287.88;4967234;28;20074;-66
2021/11/22 02:31:15;;;;;;;11.55;8.65;;;;;;;-140.79;100.00;63287.88;4967362;28;20027;-66
2021/11/22 02:33:41;;;;;;;12.38;8.85;;;;;;;-140.79;100.00;63287.88;4969365;28;20030;-66
2021/11/22 02:36:06;;;;;;;10.88;8.32;;;;;;;-140.79;100.00;63287.88;4969741;28;20489;-66
2021/11/22 02:38:34;;;;;;;12.02;8.88;;;;;;;-140.79;100.00;63287.88;4969257;28;20058;-66
2021/11/22 02:41:00;;;;;;;11.63;8.77;;;;;;;-140.79;100.00;63287.88;4970226;28;20027;-66
2021/11/22 02:43:26;;;;;;;10.70;8.48;;;;;;;-140.79;100.00;63287.88;4979131;28;20034;-66
2021/11/22 02:45:51;;;;;;;11.75;8.73;;;;;;;-140.79;100.00;63287.88;4973152;28;20046;-66
2021/11/22 02:48:17;;;;;;;12.65;9.13;;;;;;;-140.79;100.00;63287.88;4968577;28;20050;-66
2021/11/22 02:50:42;;;;;;;12.43;9.02;;;;;;;-140.79;100.00;63287.88;4968210;28;20074;-67
2021/11/22 02:53:08;;;;;;;11.90;9.25;;;;;;;-140.79;100.00;63287.88;4967997;28;20497;-66
2021/11/22 02:55:33;;;;;;;10.88;8.68;;;;;;;-140.79;100.00;63287.88;4968533;28;20030;-66
2021/11/22 02:57:59;;;;;;;12.23;8.82;;;;;;;-140.79;100.00;63287.88;4968398;28;20035;-66
2021/11/22 03:00:29;;;;;;;10.95;8.45;;;;;;;-140.79;100.00;63287.88;4966732;28;20030;-66
2021/11/22 03:02:54;;;;;;;11.98;8.52;;;;;;;-140.79;100.00;63287.88;4968097;28;20057;-66
2021/11/22 03:05:20;;;;;;;12.20;8.93;;;;;;;-140.79;100.00;63287.88;4966752;28;20483;-66
2021/11/22 03:07:46;;;;;;;11.00;8.45;;;;;;;-140.79;100.00;63287.88;4968150;28;20022;-66
2021/11/22 03:10:14;;;;;;;12.80;9.40;;;;;;;-140.79;100.00;63287.88;4966631;28;20146;-65
2021/11/22 03:12:39;;;;;;;11.55;8.25;;;;;;;-140.79;100.00;63287.88;4967199;28;20119;-66
2021/11/22 03:15:12;;;;;;;12.85;9.05;;;;;;;-140.79;100.00;63287.88;4968133;28;20043;-65
2021/11/22 03:17:38;;;;;;;11.48;8.63;;;;;;;-140.79;100.00;63287.88;4967060;28;20034;-66
2021/11/22 03:20:04;;;;;;;11.63;8.55;;;;;;;-140.79;100.00;63287.88;4967952;28;20037;-66
2021/11/22 03:22:30;;;;;;;11.20;8.65;;;;;;;-140.79;100.00;63287.88;4967744;28;20047;-66
2021/11/22 03:24:56;;;;;;;13.85;9.30;;;;;;;-140.79;100.00;63287.88;4967787;28;20462;-66
2021/11/22 03:27:21;;;;;;;11.55;8.18;;;;;;;-140.79;100.00;63287.88;4967124;28;20026;-66
2021/11/22 03:29:46;;;;;;;10.98;8.82;;;;;;;-140.79;100.00;63287.88;4966073;28;20512;-65
2021/11/22 03:32:12;;;;;;;10.48;8.45;;;;;;;-140.79;100.00;63287.88;4967824;28;20025;-66
2021/11/22 03:34:37;;;;;;;11.18;8.43;;;;;;;-140.79;100.00;63287.88;4967886;28;20047;-66
2021/11/22 03:37:05;;;;;;;10.98;8.77;;;;;;;-140.79;100.00;63287.88;4966106;28;20034;-66
2021/11/22 03:39:32;;;;;;;11.02;9.00;;;;;;;-140.79;100.00;63287.88;4967246;28;20038;-66
2021/11/22 03:41:59;;;;;;;11.00;8.93;;;;;;;-140.79;100.00;63287.88;4967306;28;20023;-66
2021/11/22 03:44:25;;;;;;;11.05;8.95;;;;;;;-140.79;100.00;63287.88;4967630;28;20027;-66
2021/11/22 03:46:51;;;;;;;11.02;8.65;;;;;;;-140.79;100.00;63287.88;4965882;28;20038;-66
2021/11/22 03:49:17;;;;;;;10.80;8.25;;;;;;;-140.79;100.00;63287.88;4967564;28;20035;-66
2021/11/22 03:51:43;;;;;;;12.57;9.38;;;;;;;-140.79;100.00;63287.88;4965604;28;20583;-67
2021/11/22 03:54:10;;;;;;;11.25;9.13;;;;;;;-140.79;100.00;63287.88;4967088;28;20514;-64
2021/11/22 03:56:35;;;;;;;11.82;8.88;;;;;;;-140.79;100.00;63287.88;4967652;28;20489;-65
2021/11/22 03:59:01;;;;;;;12.70;9.50;;;;;;;-140.79;100.00;63287.88;4965907;28;20082;-66
2021/11/22 04:01:26;;;;;;;12.35;9.30;;;;;;;-140.79;100.00;63287.88;4965689;28;20027;-65
2021/11/22 04:03:52;;;;;;;13.07;9.27;;;;;;;-140.79;100.00;63287.88;4966975;28;20054;-65
2021/11/22 04:06:17;;;;;;;10.75;8.70;;;;;;;-140.79;100.00;63287.88;4967088;28;20031;-65
2021/11/22 04:08:43;;;;;;;12.00;9.27;;;;;;;-140.79;100.00;63287.88;4966894;28;20695;-66
2021/11/22 04:11:09;;;;;;;11.40;9.02;;;;;;;-140.79;100.00;63287.88;4966510;28;20655;-66
2021/11/22 04:13:34;;;;;;;11.93;8.80;;;;;;;-140.79;100.00;63287.88;4966838;28;20037;-66
2021/11/22 04:16:01;;;;;;;12.35;8.98;;;;;;;-140.79;100.00;63287.88;4965427;28;20066;-66
2021/11/22 04:18:27;;;;;;;12.30;8.93;;;;;;;-140.79;100.00;63287.88;4965500;28;20038;-66
2021/11/22 04:20:53;;;;;;;12.20;9.35;;;;;;;-140.79;100.00;63287.88;4966156;28;20563;-66
2021/11/22 04:23:18;;;;;;;11.85;9.07;;;;;;;-140.79;100.00;63287.88;4966713;28;20035;-66
2021/11/22 04:25:43;;;;;;;11.93;8.98;;;;;;;-140.79;100.00;63287.88;4967093;28;20048;-66
2021/11/22 04:28:10;;;;;;;12.98;9.73;;;;;;;-140.79;100.00;63287.88;4966518;28;20033;-66
2021/11/22 04:30:36;;;;;;;12.27;8.95;;;;;;;-140.79;100.00;63287.88;4949200;28;20089;-66
2021/11/22 04:33:02;;;;;;;12.40;9.48;;;;;;;-140.79;100.00;63287.88;4965201;28;20348;-66
2021/11/22 04:35:27;;;;;;;12.10;9.48;;;;;;;-140.79;100.00;63287.88;4966865;28;20129;-66
2021/11/22 04:37:53;;;;;;;12.43;9.23;;;;;;;-140.79;100.00;63287.88;4966319;28;20037;-66
2021/11/22 04:40:19;;;;;;;12.80;9.02;;;;;;;-140.79;100.00;63287.88;4966193;28;20022;-66
2021/11/22 04:42:47;;;;;;;13.52;9.80;;;;;;;-140.79;100.00;63287.88;4966567;28;20493;-66
2021/11/22 04:45:13;;;;;;;13.40;9.38;;;;;;;-140.79;100.00;63287.88;4966630;28;20030;-66
2021/11/22 04:47:38;;;;;;;13.77;10.32;;;;;;;-140.79;100.00;63287.88;4966351;28;20137;-66
2021/11/22 04:50:04;;;;;;;13.00;9.35;;;;;;;-140.79;100.00;63287.88;4949009;28;20532;-66
2021/11/22 04:52:30;;;;;;;13.23;10.05;;;;;;;-140.79;100.00;63287.88;4966342;28;20122;-65
2021/11/22 04:54:55;;;;;;;13.38;10.27;;;;;;;-140.79;100.00;63287.88;4967628;28;20033;-66
2021/11/22 04:57:20;;;;;;;12.77;9.80;;;;;;;-140.79;100.00;63287.88;4975904;28;20027;-66
2021/11/22 04:59:46;;;;;;;14.52;10.45;;;;;;;-140.79;100.00;63287.88;4973089;28;20025;-66
2021/11/22 05:02:11;;;;;;;12.93;9.73;;;;;;;-140.79;100.00;63287.88;4967849;28;20046;-65
2021/11/22 05:04:37;;;;;;;14.43;10.18;;;;;;;-140.79;100.00;63287.88;4967645;28;20030;-66
2021/11/22 05:07:03;;;;;;;13.32;10.18;;;;;;;-140.79;100.00;63287.88;4948331;28;20027;-66
2021/11/22 05:09:29;;;;;;;13.30;10.05;;;;;;;-140.79;100.00;63287.88;4965859;28;20070;-66
2021/11/22 05:11:54;;;;;;;13.18;9.40;;;;;;;-140.79;100.00;63287.88;4965598;28;20065;-66
2021/11/22 05:14:20;;;;;;;12.18;9.88;;;;;;;-140.79;100.00;63287.88;4965832;28;20031;-66
2021/11/22 05:16:45;;;;;;;13.77;10.60;;;;;;;-140.79;100.00;63287.88;4964751;28;20567;-66
2021/11/22 05:19:11;;;;;;;12.93;10.20;;;;;;;-140.79;100.00;63287.88;4948567;28;20497;-66
2021/11/22 05:21:37;;;;;;;14.18;10.57;;;;;;;-140.79;100.00;63287.88;4965436;28;20425;-66
2021/11/22 05:24:02;;;;;;;13.20;9.90;;;;;;;-140.79;100.00;63287.88;4965487;28;20035;-66
2021/11/22 05:26:31;;;;;;;13.70;10.25;;;;;;;-140.79;100.00;63287.88;4965647;28;20873;-66
2021/11/22 05:28:58;;;;;;;14.13;10.40;;;;;;;-140.79;100.00;63287.88;4948872;28;20117;-65
2021/11/22 05:31:23;;;;;;;14.38;10.73;;;;;;;-140.79;100.00;63287.88;4974834;28;20530;-65
2021/11/22 05:33:50;;;;;;;13.50;10.65;;;;;;;-140.79;100.00;63287.88;4967509;28;20030;-66
2021/11/22 05:36:15;;;;;;;13.75;9.75;;;;;;;-140.79;100.00;63287.88;4967725;28;20038;-66
2021/11/22 05:38:41;;;;;;;13.90;10.70;;;;;;;-140.79;100.00;63287.88;4985407;28;20682;-65
2021/11/22 05:41:07;;;;;;;13.02;9.75;;;;;;;-140.79;100.00;63287.88;4984815;28;20065;-66
2021/11/22 05:43:32;;;;;;;13.38;10.60;;;;;;;-140.79;100.00;63287.88;4967829;28;20143;-67
2021/11/22 05:45:58;;;;;;;12.60;9.85;;;;;;;-140.79;100.00;63287.88;4986315;28;20030;-67
2021/11/22 05:48:23;;;;;;;12.98;9.88;;;;;;;-140.79;100.00;63287.88;4984025;28;20030;-67
2021/11/22 05:50:51;;;;;;;13.45;10.75;;;;;;;-140.79;100.00;63287.88;4987412;28;20121;-66
2021/11/22 05:53:18;;;;;;;12.45;9.68;;;;;;;-140.79;100.00;63287.88;4988263;28;20049;-66
2021/11/22 05:55:44;;;;;;;14.68;10.80;;;;;;;-140.79;100.00;63287.88;4971217;28;20030;-68
2021/11/22 05:58:14;;;;;;;13.70;10.15;;;;;;;-140.79;100.00;63287.88;4986016;28;20018;-67
2021/11/22 06:00:40;;;;;;;14.87;10.80;;;;;;;-140.79;100.00;63287.88;4970042;28;20018;-67
2021/11/22 06:03:06;;;;;;;14.35;10.93;;;;;;;-140.79;100.00;63287.88;4965377;28;20046;-67
2021/11/22 06:05:31;;;;;;;15.40;11.75;;;;;;;-140.79;100.00;63287.88;4968503;28;20598;-66
2021/11/22 06:07:57;;;;;;;15.02;10.55;;;;;;;-140.79;100.00;63287.88;4963243;28;20424;-67
2021/11/22 06:10:22;;;;;;;14.35;10.27;;;;;;;-140.79;100.00;63287.88;4966600;28;20034;-68
2021/11/22 06:12:48;;;;;;;14.73;10.82;;;;;;;-140.79;100.00;63287.88;4967318;28;20049;-66
2021/11/22 06:15:13;;;;;;;14.90;10.68;;;;;;;-140.79;100.00;63287.88;4963290;28;20027;-67
2021/11/22 06:17:39;;;;;;;13.38;10.55;;;;;;;-140.79;100.00;63287.88;4968605;28;20034;-67
2021/11/22 06:20:05;;;;;;;14.05;10.38;;;;;;;-140.79;100.00;63287.88;4969328;28;20035;-69
2021/11/22 06:22:30;;;;;;;13.55;10.73;;;;;;;-140.79;100.00;63287.88;4967673;28;20043;-71
2021/11/22 06:24:56;;;;;;;13.63;10.30;;;;;;;-140.79;100.00;63287.88;4968941;28;20085;-73
2021/11/22 06:27:21;;;;;;;14.13;10.35;;;;;;;-140.79;100.00;63287.88;4969161;28;20531;-69
2021/11/22 06:29:50;;;;;;;15.50;10.30;;;;;;;-140.79;100.00;63287.88;4968177;28;20101;-70
2021/11/22 06:32:16;;;;;;;12.88;10.23;;;;;;;-140.79;100.00;63287.88;4967202;28;20062;-71
2021/11/22 06:34:41;;;;;;;15.43;10.80;;;;;;;-140.79;100.00;63287.88;4961131;28;20414;-71
2021/11/22 06:37:07;;;;;;;14.35;10.13;;;;;;;-140.79;100.00;63287.88;4967033;28;20398;-72
2021/11/22 06:39:33;;;;;;;12.90;9.38;;;;;;;-140.79;100.00;63287.88;4978278;28;20056;-72
2021/11/22 06:41:59;;;;;;;13.10;9.63;;;;;;;-140.79;100.00;63287.88;4966934;28;20051;-74
2021/11/22 06:44:24;;;;;;;13.50;10.05;;;;;;;-140.79;100.00;63287.88;4950136;28;20421;-71
2021/11/22 06:46:49;;;;;;;13.60;10.65;;;;;;;-140.79;100.00;63287.88;4964552;28;20027;-73
2021/11/22 06:49:18;;;;;;;14.38;10.60;;;;;;;-140.79;100.00;63287.88;4954929;28;20034;-75
2021/11/22 06:51:44;;;;;;;14.02;10.52;;;;;;;-140.79;100.00;63287.88;4955055;28;20023;-73
2021/11/22 06:54:09;;;;;;;12.50;9.23;;;;;;;-140.79;100.00;63287.88;4959852;28;20021;-75
2021/11/22 06:56:35;;;;;;;12.73;9.80;;;;;;;-140.79;100.00;63287.88;4982651;28;20049;-72
2021/11/22 06:59:00;;;;;;;14.02;9.95;;;;;;;-140.79;100.00;63287.88;4966071;28;20113;-71
2021/11/22 07:01:26;;;;;;;14.95;10.40;;;;;;;-140.79;100.00;63287.88;4961304;28;20019;-72
2021/11/22 07:03:51;;;;;;;14.15;10.85;;;;;;;-140.79;100.00;63287.88;4980437;28;20050;-72
2021/11/22 07:06:17;;;;;;;13.77;10.20;;;;;;;-140.79;100.00;63287.88;4982613;28;20030;-72
2021/11/22 07:08:42;;;;;;;14.15;10.45;;;;;;;-140.79;100.00;63287.88;4968455;28;20504;-72
2021/11/22 07:11:08;;;;;;;13.82;10.75;;;;;;;-140.79;100.00;63287.88;4920181;28;20050;-68
2021/11/22 07:13:34;;;;;;;14.27;10.40;;;;;;;-140.79;100.00;63287.88;4986428;28;20019;-69
2021/11/22 07:16:00;;;;;;;14.25;10.57;;;;;;;-140.79;100.00;63287.88;4987238;28;20183;-70
2021/11/22 07:18:26;;;;;;;13.88;10.63;;;;;;;-140.79;100.00;63287.88;4987206;28;20132;-69
2021/11/22 07:20:51;;;;;;;14.07;10.48;;;;;;;-140.79;100.00;63287.88;4986507;28;20031;-69
2021/11/22 07:23:22;;;;;;;13.98;10.32;;;;;;;-140.79;100.00;63287.88;4950207;28;20082;-75
2021/11/22 07:25:47;;;;;;;13.93;10.48;;;;;;;-140.79;100.00;63287.88;4946469;28;20100;-73
2021/11/22 07:28:13;;;;;;;15.50;10.77;;;;;;;-140.79;100.00;63287.88;4978950;28;20042;-74
2021/11/22 07:30:38;;;;;;;16.63;11.40;;;;;;;-140.79;100.00;63287.88;4981496;28;20038;-73
2021/11/22 07:33:04;;;;;;;15.60;10.40;;;;;;;-140.79;100.00;63287.88;4947703;28;20030;-73
2021/11/22 07:35:30;;;;;;;14.98;10.57;;;;;;;-140.79;100.00;63287.88;4918478;28;20034;-72
2021/11/22 07:37:55;;;;;;;33.67;23.10;;;;;;;-140.79;100.00;63287.88;4981395;28;20519;-74
2021/11/22 07:40:22;;;;;;;22.10;15.82;;;;;;;-140.79;100.00;63287.88;4965942;28;20026;-72
2021/11/22 07:42:51;;;;;;;23.55;16.23;;;;;;;-140.79;100.00;63287.88;4955819;28;20036;-73
2021/11/22 07:45:16;;;;;;;16.20;12.00;;;;;;;-140.79;100.00;63287.88;4965015;28;20501;-71
2021/11/22 07:47:42;;;;;;;16.27;11.55;;;;;;;-140.79;100.00;63287.88;4959268;28;20069;-73
2021/11/22 07:50:07;;;;;;;17.70;12.77;;;;;;;-140.79;100.00;63287.88;4963485;28;20026;-72
2021/11/22 07:52:33;;;;;;;16.40;11.90;;;;;;;-140.79;100.00;63287.88;4986670;28;20054;-72
2021/11/22 07:54:58;;;;;;;16.58;11.63;;;;;;;-140.79;100.00;63287.88;4948204;28;20022;-71
2021/11/22 07:57:24;;;;;;;15.45;11.80;;;;;;;-140.79;100.00;63287.88;4981768;28;20022;-73
2021/11/22 07:59:51;;;;;;;15.05;11.80;;;;;;;-140.79;100.00;63287.88;4988042;28;20756;-72
2021/11/22 08:02:16;;;;;;;14.95;11.18;;;;;;;-140.79;100.00;63287.88;4987943;28;21041;-72
2021/11/22 08:04:42;;;;;;;15.45;11.68;;;;;;;-140.79;100.00;63287.88;4971843;28;20062;-72
2021/11/22 08:07:16;;;;;;;15.25;12.02;;;;;;;-140.79;100.00;63287.88;4988155;28;20105;-73
2021/11/22 08:09:56;;;;;;;16.90;11.45;;;;;;;-140.79;100.00;63287.88;4949989;28;20023;-71
2021/11/22 08:12:28;;;;;;;15.32;11.70;;;;;;;-140.79;100.00;63287.88;4949065;28;20170;-73
2021/11/22 08:15:01;;;;;;;15.43;10.85;;;;;;;-140.79;100.00;63287.88;4947314;28;20094;-72
2021/11/22 08:17:27;;;;;;;16.58;11.73;;;;;;;-140.79;100.00;63287.88;4968223;28;20117;-74
2021/11/22 08:19:52;;;;;;;16.80;11.45;;;;;;;-140.79;100.00;63287.88;4968110;28;20045;-72
2021/11/22 08:22:21;;;;;;;16.88;12.57;;;;;;;-140.79;100.00;63287.88;4985764;28;20022;-72
2021/11/22 08:24:51;;;;;;;16.38;12.43;;;;;;;-140.79;100.00;63287.88;4968969;28;20505;-73
2021/11/22 08:27:17;;;;;;;19.08;12.35;;;;;;;-140.79;100.00;63287.88;4969219;28;20030;-69
2021/11/22 08:29:43;;;;;;;16.60;11.32;;;;;;;-140.79;100.00;63287.88;4985941;28;20038;-72
2021/11/22 08:32:08;;;;;;;16.15;11.82;;;;;;;-140.79;100.00;63287.88;4984132;28;20034;-71
2021/11/22 08:34:34;;;;;;;14.73;11.45;;;;;;;-140.79;100.00;63287.88;4969017;28;20085;-72
2021/11/22 08:36:59;;;;;;;15.88;11.90;;;;;;;-140.79;100.00;63287.88;4985420;28;20038;-72
2021/11/22 08:39:25;;;;;;;17.30;12.40;;;;;;;-140.79;100.00;63287.88;4968154;28;20522;-72
2021/11/22 08:41:50;;;;;;;36.20;25.88;;;;;;;-140.79;100.00;63287.88;4977637;28;20033;-70
2021/11/22 08:44:16;;;;;;;35.00;23.98;;;;;;;-140.79;100.00;63287.88;4968446;28;20034;-73
2021/11/22 08:46:42;;;;;;;26.00;17.95;;;;;;;-140.79;100.00;63287.88;4951190;28;20045;-73
2021/11/22 08:49:08;;;;;;;20.52;14.98;;;;;;;-140.79;100.00;63287.88;4951792;28;20093;-71
2021/11/22 08:51:33;;;;;;;18.75;13.75;;;;;;;-140.79;100.00;63287.88;4963509;28;20030;-72
2021/11/22 08:53:59;;;;;;;19.73;13.73;;;;;;;-140.79;100.00;63287.88;4967196;28;20038;-72
2021/11/22 08:56:24;;;;;;;18.60;13.45;;;;;;;-140.79;100.00;63287.88;4967998;28;20058;-71
2021/11/22 08:58:50;;;;;;;17.98;12.13;;;;;;;-140.79;100.00;63287.88;4985012;28;20108;-73
2021/11/22 09:01:15;;;;;;;16.27;12.60;;;;;;;-140.79;100.00;63287.88;4982774;28;20050;-73
2021/11/22 09:03:44;;;;;;;16.88;12.82;;;;;;;-140.79;100.00;63287.88;4985212;28;20046;-72
2021/11/22 09:06:10;;;;;;;18.05;12.40;;;;;;;-140.79;100.00;63287.88;4967387;28;20030;-73
2021/11/22 09:08:36;;;;;;;20.50;13.75;;;;;;;-140.79;100.00;63287.88;4983780;28;20041;-74
2021/11/22 09:11:01;;;;;;;18.38;12.82;;;;;;;-140.79;100.00;63287.88;4967190;28;20100;-68
2021/11/22 09:13:27;;;;;;;17.98;13.23;;;;;;;-140.79;100.00;63287.88;4967897;28;20064;-67
2021/11/22 09:15:52;;;;;;;16.05;11.82;;;;;;;-140.79;100.00;63287.88;4982017;28;20436;-73
2021/11/22 09:18:18;;;;;;;17.48;12.48;;;;;;;-140.79;100.00;63287.88;4936839;28;20037;-70
2021/11/22 09:20:43;;;;;;;17.75;12.27;;;;;;;-140.79;100.00;63287.88;4933531;28;20034;-71
2021/11/22 09:23:11;;;;;;;17.13;12.77;;;;;;;-140.79;100.00;63287.88;4932342;28;20050;-70
2021/11/22 09:25:36;;;;;;;17.80;13.07;;;;;;;-140.79;100.00;63287.88;4954627;28;20034;-72
2021/11/22 09:28:02;;;;;;;18.48;12.60;;;;;;;-140.79;100.00;63287.88;4973074;28;20141;-71
2021/11/22 09:30:28;;;;;;;15.10;11.43;;;;;;;-140.79;100.00;63287.88;4986341;28;20034;-71
2021/11/22 09:32:54;;;;;;;16.35;12.32;;;;;;;-140.79;100.00;63287.88;4986431;28;20023;-72
2021/11/22 09:35:20;;;;;;;16.25;12.45;;;;;;;-140.79;100.00;63287.88;4985107;28;20057;-72
2021/11/22 09:37:46;;;;;;;18.85;12.40;;;;;;;-140.79;100.00;63287.88;4985230;28;20563;-72
2021/11/22 09:40:11;;;;;;;16.95;12.82;;;;;;;-140.79;100.00;63287.88;4985754;28;20022;-72
2021/11/22 09:42:37;;;;;;;17.35;12.15;;;;;;;-140.79;100.00;63287.88;4968181;28;20449;-73
2021/11/22 09:45:03;;;;;;;16.58;12.27;;;;;;;-140.79;100.00;63287.88;4985253;28;20548;-74
2021/11/22 09:47:29;;;;;;;17.20;12.70;;;;;;;-140.79;100.00;63287.88;4985239;28;20030;-73
2021/11/22 09:49:54;;;;;;;15.88;11.68;;;;;;;-140.79;100.00;63287.88;4967847;28;20026;-72
2021/11/22 09:52:24;;;;;;;16.20;12.00;;;;;;;-140.79;100.00;63287.88;4984994;28;20046;-72
2021/11/22 09:54:50;;;;;;;;;;;;;;;-140.79;100.00;63287.88;4985583;28;20053;-73
2021/11/22 09:57:16;;;;;;;15.27;12.38;;;;;;;-140.79;100.00;63287.88;4985420;28;19910;-71
2021/11/22 09:59:42;;;;;;;17.75;12.43;;;;;;;-140.79;100.00;63287.88;4985017;28;20049;-72
2021/11/22 10:02:08;;;;;;;16.48;11.88;;;;;;;-140.79;100.00;63287.88;4951528;28;20030;-71
2021/11/22 10:04:33;;;;;;;15.25;11.70;;;;;;;-140.79;100.00;63287.88;4983586;28;20033;-72
2021/11/22 10:07:01;;;;;;;17.15;12.50;;;;;;;-140.79;100.00;63287.88;4968379;28;20030;-71
2021/11/22 10:09:36;;;;;;;16.92;12.30;;;;;;;-140.79;100.00;63287.88;4985626;28;20026;-73
2021/11/22 10:12:10;;;;;;;16.73;12.02;;;;;;;-140.79;100.00;63287.88;4983183;28;20030;-72
2021/11/22 10:14:46;;;;;;;16.00;11.80;;;;;;;-140.79;100.00;63287.88;4963578;28;21243;-69
2021/11/22 10:17:39;;;;;;;15.18;11.77;;;;;;;-140.79;100.00;63287.88;4978989;28;20034;-69
2021/11/22 10:20:08;;;;;;;16.25;11.65;;;;;;;-140.79;100.00;63287.88;4977573;28;20042;-68
2021/11/22 10:22:40;;;;;;;16.70;11.93;;;;;;;-140.79;100.00;63287.88;4984557;28;20460;-68
2021/11/22 10:25:24;;;;;;;15.73;11.90;;;;;;;-140.79;100.00;63287.88;4984809;28;20040;-70
2021/11/22 10:27:50;;;;;;;17.85;11.60;;;;;;;-140.79;100.00;63287.88;4968558;28;20417;-67
2021/11/22 10:30:24;;;;;;;16.23;11.45;;;;;;;-140.79;100.00;63287.88;4984000;28;20027;-67
2021/11/22 10:32:52;;;;;;;15.85;11.93;;;;;;;-140.79;100.00;63287.88;4983978;28;20496;-68
2021/11/22 10:35:18;;;;;;;15.73;11.43;;;;;;;-140.79;100.00;63287.88;4967191;28;20054;-68
2021/11/22 10:38:01;;;;;;;15.73;11.68;;;;;;;-140.79;100.00;63287.88;4988085;28;20034;-68
2021/11/22 10:40:28;;;;;;;15.60;12.00;;;;;;;-140.79;100.00;63287.88;4987906;28;20053;-68
2021/11/22 10:42:54;;;;;;;15.73;11.50;;;;;;;-140.79;100.00;63287.88;4988224;28;20483;-68
2021/11/22 10:45:28;;;;;;;15.43;11.63;;;;;;;-140.79;100.00;63287.88;4988382;28;20022;-68
2021/11/22 10:48:18;;;;;;;17.15;11.40;;;;;;;-140.79;100.00;63287.88;4989005;28;20037;-68
2021/11/22 10:50:50;;;;;;;17.30;11.80;;;;;;;-140.79;100.00;63287.88;4986875;28;20037;-68
2021/11/22 10:53:31;;;;;;;16.60;11.68;;;;;;;-140.79;100.00;63287.88;4956665;28;20038;-68
2021/11/22 10:55:56;;;;;;;14.38;10.80;;;;;;;-140.79;100.00;63287.88;4987926;28;20508;-67